Time;durP1;ratioP1;P1;durP2;ratioP2;P2;SDS_P1;SDS_P2;PMS_P1;PMS_P2;Temp;Humidity;BMP_temperature;BMP_pressure;BME280_temperature;BME280_humidity;BME280_pressure;Samples;Min_cycle;Max_cycle;Signal;HPM_P1;HPM_P2
2021/12/13 00:01:26;;;;;;;24.83;19.80;;;11.30;99.90;;;;;;5040207;28;20424;-43
2021/12/13 00:04:07;;;;;;;21.75;17.92;;;11.30;99.90;;;;;;5046451;28;20546;-43
2021/12/13 00:06:39;;;;;;;17.10;15.30;;;11.30;99.90;;;;;;5038719;28;20060;-43
2021/12/13 00:09:13;;;;;;;23.45;19.08;;;11.20;99.90;;;;;;5047477;28;20029;-42
2021/12/13 00:11:42;;;;;;;19.70;17.30;;;11.30;99.90;;;;;;5038764;28;20029;-43
2021/12/13 00:14:13;;;;;;;22.60;19.17;;;11.30;99.90;;;;;;5046339;28;20029;-43
2021/12/13 00:16:44;;;;;;;22.98;19.38;;;11.20;99.90;;;;;;5039833;28;20021;-43
2021/12/13 00:19:21;;;;;;;23.20;18.67;;;11.20;99.90;;;;;;5044878;28;20056;-44
2021/12/13 00:21:50;;;;;;;21.88;18.42;;;11.20;99.90;;;;;;5040628;28;20053;-43
2021/12/13 00:24:25;;;;;;;23.70;19.30;;;11.20;99.90;;;;;;5044287;28;20548;-44
2021/12/13 00:26:59;;;;;;;23.80;19.70;;;11.20;99.90;;;;;;5041351;28;20087;-43
2021/12/13 00:29:30;;;;;;;26.90;20.48;;;11.20;99.90;;;;;;5044572;28;20096;-43
2021/12/13 00:32:03;;;;;;;20.95;18.27;;;11.20;99.90;;;;;;5041536;28;20029;-43
2021/12/13 00:34:54;;;;;;;24.33;18.80;;;11.20;99.90;;;;;;5043126;28;20049;-44
2021/12/13 00:37:48;;;;;;;27.38;21.60;;;11.20;99.90;;;;;;5040418;28;20075;-43
2021/12/13 00:40:16;;;;;;;27.10;19.67;;;11.20;99.90;;;;;;5048793;28;20064;-44
2021/12/13 00:43:04;;;;;;;28.05;20.40;;;11.20;99.90;;;;;;5037936;28;20552;-43
2021/12/13 00:45:34;;;;;;;26.42;18.35;;;11.20;99.90;;;;;;5027626;28;20021;-43
2021/12/13 00:48:02;;;;;;;23.65;18.13;;;11.20;99.90;;;;;;5038933;28;20037;-43
2021/12/13 00:50:44;;;;;;;25.90;17.63;;;11.20;99.90;;;;;;5029765;28;20018;-43
2021/12/13 00:53:15;;;;;;;21.80;17.42;;;11.20;99.90;;;;;;5038011;28;20025;-43
2021/12/13 00:55:43;;;;;;;26.10;18.67;;;11.20;99.90;;;;;;5027966;28;20059;-43
2021/12/13 00:58:23;;;;;;;24.50;17.95;;;11.20;99.90;;;;;;5037690;28;20032;-43
2021/12/13 01:00:56;;;;;;;23.00;17.65;;;11.20;99.90;;;;;;5028708;28;20025;-43
2021/12/13 01:03:21;;;;;;;;;;;11.20;99.90;;;;;;5037787;28;20492;-43
2021/12/13 01:06:11;;;;;;;22.73;16.40;;;11.20;99.90;;;;;;5030006;28;19909;-43
2021/12/13 01:09:18;;;;;;;22.13;16.95;;;11.10;99.90;;;;;;5037925;28;20078;-43
2021/12/13 01:11:44;;;;;;;23.63;18.17;;;11.20;99.90;;;;;;5008038;28;20022;-43
2021/12/13 01:14:28;;;;;;;21.50;17.38;;;11.20;99.90;;;;;;5037135;28;20044;-43
2021/12/13 01:17:06;;;;;;;21.92;16.27;;;11.10;99.90;;;;;;5027612;28;20033;-43
2021/12/13 01:19:53;;;;;;;20.35;15.85;;;11.10;99.90;;;;;;5039398;28;20124;-42
2021/12/13 01:25:38;;;;;;;20.17;15.32;;;11.10;99.90;;;;;;5039122;28;20039;-43
2021/12/13 01:28:07;;;;;;;20.45;15.45;;;11.00;99.90;;;;;;5028206;28;20020;-43
2021/12/13 01:30:40;;;;;;;20.30;14.93;;;11.10;99.90;;;;;;5038639;28;20370;-43
2021/12/13 01:33:12;;;;;;;20.17;14.98;;;11.10;99.90;;;;;;5028728;28;20148;-43
2021/12/13 01:35:42;;;;;;;17.45;13.57;;;11.00;99.90;;;;;;5037644;28;20138;-43
2021/12/13 01:38:15;;;;;;;17.15;14.02;;;11.00;99.90;;;;;;5029161;28;20018;-44
2021/12/13 01:40:48;;;;;;;21.13;15.23;;;11.00;99.90;;;;;;5038397;28;20021;-42
2021/12/13 01:43:20;;;;;;;18.65;14.05;;;11.00;99.90;;;;;;5027592;28;20168;-42
2021/12/13 01:45:49;;;;;;;16.95;14.50;;;11.00;99.90;;;;;;5034535;28;20022;-42
2021/12/13 01:48:23;;;;;;;19.50;14.57;;;11.00;99.90;;;;;;5027341;28;20025;-43
2021/12/13 01:50:53;;;;;;;14.18;11.98;;;11.00;99.90;;;;;;5038817;28;20016;-43
2021/12/13 01:53:37;;;;;;;17.88;13.88;;;10.90;99.90;;;;;;5027595;28;20953;-43
2021/12/13 01:56:23;;;;;;;15.43;12.55;;;10.90;99.90;;;;;;5034398;28;20161;-43
2021/12/13 01:58:49;;;;;;;17.98;14.00;;;10.90;99.90;;;;;;5045999;28;20029;-43
2021/12/13 02:01:21;;;;;;;19.70;14.85;;;10.90;99.90;;;;;;5038470;28;20033;-43
2021/12/13 02:03:52;;;;;;;17.77;15.52;;;10.90;99.90;;;;;;5026234;28;20033;-43
2021/12/13 02:06:41;;;;;;;18.65;14.70;;;10.90;99.90;;;;;;5039122;28;20075;-43
2021/12/13 02:09:20;;;;;;;20.73;15.18;;;10.90;99.90;;;;;;5027445;28;20040;-43
2021/12/13 02:11:50;;;;;;;19.33;16.02;;;10.90;99.90;;;;;;5035590;28;20021;-44
2021/12/13 02:14:20;;;;;;;20.73;14.75;;;11.00;99.90;;;;;;5027749;28;20029;-43
2021/12/13 02:16:59;;;;;;;19.67;16.25;;;10.90;99.90;;;;;;5033717;28;20057;-43
2021/12/13 02:19:32;;;;;;;19.08;15.85;;;11.00;99.90;;;;;;5026840;28;20065;-43
2021/12/13 02:22:17;;;;;;;21.30;17.05;;;11.00;99.90;;;;;;5034602;28;20026;-43
2021/12/13 02:24:43;;;;;;;23.00;17.20;;;11.00;99.90;;;;;;5027625;28;20120;-43
2021/12/13 02:27:11;;;;;;;22.40;18.08;;;11.00;99.90;;;;;;5038377;28;20121;-44
2021/12/13 02:29:38;;;;;;;23.80;18.80;;;11.00;99.90;;;;;;5027907;28;20036;-44
2021/12/13 02:32:09;;;;;;;24.85;18.08;;;11.00;99.90;;;;;;5037451;28;20075;-43
2021/12/13 02:34:42;;;;;;;24.02;19.08;;;11.00;99.90;;;;;;5050579;28;20582;-44
2021/12/13 02:37:09;;;;;;;22.10;17.67;;;11.10;99.90;;;;;;5036897;28;20469;-42
2021/12/13 02:39:44;;;;;;;28.23;20.23;;;11.00;99.90;;;;;;5050803;28;20094;-43
2021/12/13 02:42:11;;;;;;;25.67;19.85;;;11.10;99.90;;;;;;5037336;28;20033;-42
2021/12/13 02:44:47;;;;;;;24.90;20.08;;;11.10;99.90;;;;;;5049649;28;20025;-43
2021/12/13 02:47:24;;;;;;;22.75;18.63;;;11.10;99.90;;;;;;5038289;28;20029;-43
2021/12/13 02:49:50;;;;;;;28.05;21.65;;;11.10;99.90;;;;;;5050549;28;20025;-43
2021/12/13 02:52:19;;;;;;;21.65;16.70;;;11.10;99.90;;;;;;5037733;28;20064;-43
2021/12/13 02:54:50;;;;;;;21.75;17.27;;;11.10;99.90;;;;;;5050505;28;20032;-44
2021/12/13 02:57:22;;;;;;;29.38;22.42;;;11.10;99.90;;;;;;5039783;28;20053;-44
2021/12/13 02:59:50;;;;;;;;;;;11.10;99.90;;;;;;5049058;28;20674;-44
2021/12/13 03:02:25;;;;;;;29.52;22.75;;;11.10;99.90;;;;;;5040833;28;19917;-44
2021/12/13 03:04:51;;;;;;;28.70;22.10;;;11.00;99.90;;;;;;5047811;28;20202;-43
2021/12/13 03:07:24;;;;;;;29.73;23.02;;;11.00;99.90;;;;;;5041547;28;20492;-43
2021/12/13 03:09:53;;;;;;;30.98;23.67;;;11.00;99.90;;;;;;5046511;28;20122;-44
2021/12/13 03:12:21;;;;;;;24.40;20.88;;;11.00;99.90;;;;;;5042920;28;20075;-44
2021/12/13 03:14:53;;;;;;;25.70;21.52;;;11.00;99.90;;;;;;5043829;28;20021;-43
2021/12/13 03:17:28;;;;;;;26.42;21.50;;;11.00;99.90;;;;;;5044999;28;20591;-43
2021/12/13 03:20:25;;;;;;;23.75;20.70;;;11.00;99.90;;;;;;5042302;28;20136;-44
2021/12/13 03:23:03;;;;;;;27.25;20.63;;;10.90;99.90;;;;;;5041194;28;20124;-42
2021/12/13 03:25:40;;;;;;;26.33;20.58;;;10.90;99.90;;;;;;5046755;28;20028;-43
2021/12/13 03:28:27;;;;;;;26.95;20.95;;;10.90;99.90;;;;;;5039915;28;20033;-42
2021/12/13 03:31:15;;;;;;;23.17;18.15;;;10.90;99.90;;;;;;5049175;28;20033;-43
2021/12/13 03:33:51;;;;;;;24.42;18.80;;;10.90;99.90;;;;;;5036770;28;20021;-43
2021/12/13 03:36:42;;;;;;;21.27;18.10;;;10.90;99.90;;;;;;5010289;28;20078;-43
2021/12/13 03:39:10;;;;;;;19.10;16.52;;;10.90;99.90;;;;;;5040489;28;20060;-43
2021/12/13 03:41:39;;;;;;;22.58;18.95;;;10.90;99.90;;;;;;5028379;28;20116;-42
2021/12/13 03:44:11;;;;;;;21.27;17.67;;;10.80;99.90;;;;;;5041932;28;20080;-44
2021/12/13 03:46:37;;;;;;;21.27;17.77;;;10.80;99.90;;;;;;5029290;28;20064;-43
2021/12/13 03:49:05;;;;;;;16.40;14.45;;;10.80;99.90;;;;;;5039117;28;20025;-43
2021/12/13 03:51:35;;;;;;;22.20;16.35;;;10.80;99.90;;;;;;5030735;28;20068;-43
2021/12/13 03:54:04;;;;;;;20.45;17.30;;;10.80;99.90;;;;;;5037852;28;20021;-43
2021/12/13 03:56:38;;;;;;;21.10;17.30;;;10.80;99.90;;;;;;5030982;28;20465;-43
2021/12/13 03:59:09;;;;;;;20.15;15.73;;;10.80;99.90;;;;;;5037353;28;20070;-43
2021/12/13 04:01:41;;;;;;;18.45;14.93;;;10.80;99.90;;;;;;5032138;28;20083;-43
2021/12/13 04:04:12;;;;;;;18.70;15.02;;;10.80;99.90;;;;;;5035927;28;20032;-43
2021/12/13 04:06:46;;;;;;;15.15;13.05;;;10.80;99.90;;;;;;5033669;28;20029;-43
2021/12/13 04:09:12;;;;;;;15.70;12.40;;;10.70;99.90;;;;;;5034849;28;20025;-44
2021/12/13 04:11:42;;;;;;;20.33;16.67;;;10.70;99.90;;;;;;5034772;28;20087;-43
2021/12/13 04:14:14;;;;;;;18.85;15.98;;;10.70;99.90;;;;;;5033147;28;20021;-43
2021/12/13 04:17:23;;;;;;;20.35;15.48;;;10.70;99.90;;;;;;5035792;28;20087;-43
2021/12/13 04:19:57;;;;;;;17.80;14.25;;;10.70;99.90;;;;;;5035414;28;20072;-43
2021/12/13 04:22:27;;;;;;;17.05;14.52;;;10.70;99.90;;;;;;5031239;28;20377;-45
2021/12/13 04:25:21;;;;;;;15.98;13.23;;;10.70;99.90;;;;;;5035815;28;20021;-43
2021/12/13 04:28:03;;;;;;;19.17;14.40;;;10.70;99.90;;;;;;5008415;28;20034;-43
2021/12/13 04:30:48;;;;;;;17.42;13.80;;;10.70;99.90;;;;;;5034335;28;20219;-44
2021/12/13 04:33:26;;;;;;;13.32;9.98;;;10.70;99.90;;;;;;5008906;28;20034;-44
2021/12/13 04:35:56;;;;;;;16.80;13.45;;;10.70;99.90;;;;;;5038419;28;20055;-44
2021/12/13 04:38:26;;;;;;;19.83;14.45;;;10.70;99.90;;;;;;5028013;28;20079;-43
2021/12/13 04:40:55;;;;;;;21.55;15.68;;;10.70;99.90;;;;;;5039652;28;20051;-43
2021/12/13 04:43:22;;;;;;;20.90;15.88;;;10.70;99.90;;;;;;5029111;28;20044;-43
2021/12/13 04:46:03;;;;;;;19.35;14.10;;;10.70;99.90;;;;;;5037101;28;20025;-43
2021/12/13 04:48:32;;;;;;;17.05;13.07;;;10.70;99.90;;;;;;5028821;28;20022;-42
2021/12/13 04:51:15;;;;;;;21.52;15.60;;;10.70;99.90;;;;;;5037113;28;20094;-42
2021/12/13 04:53:44;;;;;;;19.55;15.68;;;10.60;99.90;;;;;;5027811;28;20060;-43
2021/12/13 04:56:20;;;;;;;21.73;15.60;;;10.60;99.90;;;;;;5037714;28;20323;-42
2021/12/13 04:58:49;;;;;;;19.05;14.35;;;10.60;99.90;;;;;;5028139;28;20021;-42
2021/12/13 05:01:17;;;;;;;17.77;14.02;;;10.60;99.90;;;;;;5037275;28;20042;-42
2021/12/13 05:03:48;;;;;;;18.58;14.07;;;10.60;99.90;;;;;;5031068;28;20372;-44
2021/12/13 05:06:18;;;;;;;21.63;15.13;;;10.60;99.90;;;;;;5034900;28;20017;-42
2021/12/13 05:08:45;;;;;;;18.85;14.20;;;10.60;99.90;;;;;;5032596;28;20022;-42
2021/12/13 05:11:11;;;;;;;19.15;14.05;;;10.70;99.90;;;;;;5032983;28;20023;-44
2021/12/13 05:13:48;;;;;;;21.65;15.07;;;10.70;99.90;;;;;;5033383;28;20025;-43
2021/12/13 05:16:16;;;;;;;20.05;14.02;;;10.70;99.90;;;;;;5032727;28;20380;-42
2021/12/13 05:18:56;;;;;;;21.02;14.30;;;10.70;99.90;;;;;;5035122;28;20043;-42
2021/12/13 05:21:40;;;;;;;19.35;14.68;;;10.70;99.90;;;;;;5032082;28;20093;-42
2021/12/13 05:24:26;;;;;;;22.15;15.32;;;10.70;99.90;;;;;;5033067;28;20049;-42
2021/12/13 05:26:59;;;;;;;17.92;12.98;;;10.70;99.90;;;;;;5033242;28;20538;-42
2021/12/13 05:29:41;;;;;;;21.35;14.65;;;10.70;99.90;;;;;;5032069;28;20125;-42
2021/12/13 05:32:31;;;;;;;22.95;15.30;;;10.60;99.90;;;;;;5034824;28;20070;-42
2021/12/13 05:35:12;;;;;;;21.98;15.93;;;10.60;99.90;;;;;;5028147;28;20068;-43
2021/12/13 05:37:46;;;;;;;22.52;15.05;;;10.60;99.90;;;;;;5037610;28;20090;-44
2021/12/13 05:40:37;;;;;;;25.88;16.58;;;10.60;99.90;;;;;;5027427;28;20072;-42
2021/12/13 05:43:43;;;;;;;20.65;15.43;;;10.60;99.90;;;;;;5036454;28;20166;-42
2021/12/13 05:46:18;;;;;;;20.10;14.23;;;10.60;99.90;;;;;;5022432;28;20112;-44
2021/12/13 05:48:46;;;;;;;23.02;15.90;;;10.60;99.90;;;;;;5033450;28;20021;-43
2021/12/13 05:51:30;;;;;;;25.63;16.20;;;10.60;99.90;;;;;;5047407;28;20029;-43
2021/12/13 05:54:07;;;;;;;20.35;14.77;;;10.60;99.90;;;;;;5035268;28;20024;-42
2021/12/13 05:56:52;;;;;;;22.38;16.00;;;10.60;99.90;;;;;;5047347;28;20021;-43
2021/12/13 05:59:31;;;;;;;21.02;14.63;;;10.60;99.90;;;;;;5035328;28;20472;-43
2021/12/13 06:02:16;;;;;;;21.83;14.43;;;10.50;99.90;;;;;;5027078;28;20033;-43
2021/12/13 06:05:00;;;;;;;19.90;14.20;;;10.50;99.90;;;;;;5038370;28;20450;-43
2021/12/13 06:07:33;;;;;;;22.00;15.70;;;10.50;99.90;;;;;;5028185;28;20082;-44
2021/12/13 06:10:07;;;;;;;;;;;10.50;99.90;;;;;;5037947;28;20088;-43
2021/12/13 06:13:06;;;;;;;24.40;15.05;;;10.50;99.90;;;;;;5028151;28;19975;-43
2021/12/13 06:15:42;;;;;;;23.17;15.55;;;10.50;99.90;;;;;;5038016;28;20029;-43
2021/12/13 06:18:21;;;;;;;25.00;16.23;;;10.50;99.90;;;;;;5043036;28;20495;-43
2021/12/13 06:21:06;;;;;;;22.20;15.73;;;10.50;99.90;;;;;;5039122;28;20087;-43
2021/12/13 06:23:36;;;;;;;22.27;15.27;;;10.50;99.90;;;;;;5041039;28;20034;-42
2021/12/13 06:26:12;;;;;;;22.25;15.43;;;10.50;99.90;;;;;;5040060;28;20052;-43
2021/12/13 06:28:45;;;;;;;24.27;16.33;;;10.50;99.90;;;;;;5042006;28;20084;-43
2021/12/13 06:31:14;;;;;;;27.38;16.08;;;10.50;99.90;;;;;;5039834;28;20033;-43
2021/12/13 06:33:51;;;;;;;23.90;15.50;;;10.50;99.90;;;;;;5043407;28;20055;-44
2021/12/13 06:36:29;;;;;;;22.67;15.15;;;10.50;99.90;;;;;;5038690;28;20029;-44
2021/12/13 06:39:09;;;;;;;22.20;14.75;;;10.50;99.90;;;;;;5042345;28;20028;-43
2021/12/13 06:41:50;;;;;;;24.85;16.20;;;10.50;99.90;;;;;;5027359;28;20112;-42
2021/12/13 06:44:22;;;;;;;22.90;14.85;;;10.50;99.90;;;;;;5028432;28;20045;-44
2021/12/13 06:46:57;;;;;;;22.35;15.10;;;10.50;99.90;;;;;;5025468;28;20022;-44
2021/12/13 06:49:34;;;;;;;24.38;15.27;;;10.50;99.90;;;;;;5029503;28;20095;-44
2021/12/13 06:52:03;;;;;;;21.08;14.35;;;10.50;99.90;;;;;;5031028;28;20397;-44
2021/12/13 06:54:33;;;;;;;21.73;15.15;;;10.50;99.90;;;;;;5030528;28;20104;-43
2021/12/13 06:57:10;;;;;;;23.55;15.73;;;10.50;99.90;;;;;;5038606;28;20029;-43
2021/12/13 06:59:55;;;;;;;20.65;14.23;;;10.50;99.90;;;;;;5040184;28;20029;-42
2021/12/13 07:02:35;;;;;;;21.52;15.48;;;10.50;99.90;;;;;;5039575;28;20357;-43
2021/12/13 07:05:09;;;;;;;20.88;13.85;;;10.50;99.90;;;;;;5038406;28;20544;-44
2021/12/13 07:07:55;;;;;;;23.38;14.68;;;10.40;99.90;;;;;;5040464;28;20021;-43
2021/12/13 07:10:25;;;;;;;21.52;14.93;;;10.40;99.90;;;;;;5038701;28;20032;-43
2021/12/13 07:12:58;;;;;;;21.40;14.27;;;10.40;99.90;;;;;;5031475;28;20025;-43
2021/12/13 07:15:29;;;;;;;20.77;14.25;;;10.40;99.90;;;;;;5032526;28;20052;-42
2021/12/13 07:18:48;;;;;;;20.30;14.77;;;10.40;99.90;;;;;;5034806;28;20037;-42
2021/12/13 07:21:20;;;;;;;20.08;14.10;;;10.40;99.90;;;;;;5030413;28;20091;-43
2021/12/13 07:24:08;;;;;;;21.35;15.07;;;10.40;99.90;;;;;;5009626;28;20121;-43
2021/12/13 07:26:49;;;;;;;22.00;13.95;;;10.40;99.90;;;;;;5038817;28;20123;-44
2021/12/13 07:29:21;;;;;;;22.08;14.50;;;10.40;99.90;;;;;;5030408;28;20033;-43
2021/12/13 07:32:03;;;;;;;21.10;13.93;;;10.40;99.90;;;;;;5042235;28;20028;-43
2021/12/13 07:34:29;;;;;;;22.80;14.23;;;10.40;99.90;;;;;;5026771;28;20612;-43
2021/12/13 07:37:00;;;;;;;20.13;13.18;;;10.40;99.90;;;;;;5040514;28;20064;-43
2021/12/13 07:39:31;;;;;;;21.60;14.73;;;10.40;99.90;;;;;;5030000;28;20107;-43
2021/12/13 07:42:05;;;;;;;19.25;13.75;;;10.40;99.90;;;;;;5041083;28;20078;-43
2021/12/13 07:44:42;;;;;;;18.77;13.50;;;10.40;99.90;;;;;;5015755;28;20033;-43
2021/12/13 07:47:24;;;;;;;16.33;12.02;;;10.40;99.90;;;;;;5040784;28;20032;-44
2021/12/13 07:49:52;;;;;;;20.80;14.10;;;10.40;99.90;;;;;;5009357;28;20117;-43
2021/12/13 07:52:30;;;;;;;19.83;14.00;;;10.40;99.90;;;;;;5037668;28;20123;-44
2021/12/13 07:55:11;;;;;;;18.55;13.10;;;10.30;99.90;;;;;;5008888;28;20683;-44
2021/12/13 07:57:36;;;;;;;22.73;15.52;;;10.30;99.90;;;;;;5039143;28;20181;-43
2021/12/13 08:00:15;;;;;;;20.92;14.50;;;10.30;99.90;;;;;;5029303;28;20505;-44
2021/12/13 08:02:53;;;;;;;21.05;14.60;;;10.30;99.90;;;;;;5040476;28;20037;-44
2021/12/13 08:05:26;;;;;;;23.15;15.32;;;10.30;99.90;;;;;;5009794;28;20081;-43
2021/12/13 08:07:58;;;;;;;24.00;16.30;;;10.30;99.90;;;;;;5036942;28;20480;-42
2021/12/13 08:10:31;;;;;;;24.77;15.57;;;10.30;99.90;;;;;;5009579;28;20026;-43
2021/12/13 08:13:19;;;;;;;19.25;14.50;;;10.40;99.90;;;;;;5036135;28;20116;-43
2021/12/13 08:15:49;;;;;;;20.30;14.13;;;10.40;99.90;;;;;;5008695;28;20026;-43
2021/12/13 08:18:37;;;;;;;18.35;14.07;;;10.40;99.90;;;;;;5038264;28;20031;-43
2021/12/13 08:21:11;;;;;;;19.67;13.32;;;10.40;99.90;;;;;;5028770;28;20075;-43
2021/12/13 08:23:46;;;;;;;18.63;12.55;;;10.40;99.90;;;;;;5040261;28;20029;-42
2021/12/13 08:26:17;;;;;;;17.98;12.40;;;10.40;99.90;;;;;;5028791;28;20175;-43
2021/12/13 08:28:48;;;;;;;18.80;12.57;;;10.40;99.90;;;;;;5041008;28;20028;-43
2021/12/13 08:31:29;;;;;;;17.58;12.27;;;10.40;99.90;;;;;;5028782;28;20014;-43
2021/12/13 08:34:06;;;;;;;17.35;12.65;;;10.40;99.90;;;;;;5041034;28;20032;-42
2021/12/13 08:36:37;;;;;;;15.45;10.98;;;10.40;99.90;;;;;;5027451;28;20433;-43
2021/12/13 08:39:19;;;;;;;18.75;13.77;;;10.40;99.90;;;;;;5040873;28;20024;-43
2021/12/13 08:41:46;;;;;;;15.65;11.75;;;10.40;99.90;;;;;;5028977;28;20061;-43
2021/12/13 08:44:12;;;;;;;17.42;13.00;;;10.50;99.90;;;;;;5055287;28;20082;-43
2021/12/13 08:46:43;;;;;;;17.55;13.13;;;10.40;99.90;;;;;;5027921;28;20021;-44
2021/12/13 08:49:17;;;;;;;15.73;10.98;;;10.50;99.90;;;;;;5025147;28;20037;-43
2021/12/13 08:51:53;;;;;;;17.27;12.25;;;10.50;99.90;;;;;;5007030;28;20021;-43
2021/12/13 08:54:20;;;;;;;17.23;11.63;;;10.50;99.90;;;;;;5034635;28;20543;-44
2021/12/13 08:56:49;;;;;;;18.13;12.63;;;10.50;99.90;;;;;;5028616;28;20041;-43
2021/12/13 08:59:26;;;;;;;20.30;13.20;;;10.60;99.90;;;;;;5036741;28;20100;-42
2021/12/13 09:02:09;;;;;;;19.10;12.73;;;10.50;99.90;;;;;;5028218;28;20030;-42
2021/12/13 09:04:56;;;;;;;18.77;12.85;;;10.50;99.90;;;;;;5032154;28;20039;-42
2021/12/13 09:07:24;;;;;;;18.63;13.07;;;10.50;99.90;;;;;;5013225;28;20092;-42
2021/12/13 09:09:49;;;;;;;19.67;12.20;;;10.50;99.90;;;;;;5039269;28;20025;-44
2021/12/13 09:12:30;;;;;;;16.58;12.77;;;10.50;99.90;;;;;;5027669;28;20033;-43
2021/12/13 09:14:58;;;;;;;16.27;11.80;;;10.50;99.90;;;;;;5037793;28;20040;-43
2021/12/13 09:17:31;;;;;;;15.40;11.52;;;10.50;99.90;;;;;;5029067;28;20048;-44
2021/12/13 09:20:02;;;;;;;16.35;11.68;;;10.50;99.90;;;;;;5033635;28;20075;-45
2021/12/13 09:22:30;;;;;;;16.10;11.35;;;10.50;99.90;;;;;;5029434;28;20078;-43
2021/12/13 09:25:27;;;;;;;14.35;11.10;;;10.50;99.90;;;;;;5035408;28;20021;-43
2021/12/13 09:28:03;;;;;;;16.80;11.13;;;10.50;99.90;;;;;;5027074;28;20050;-43
2021/12/13 09:30:44;;;;;;;16.00;10.68;;;10.50;99.90;;;;;;5038052;28;20035;-43
2021/12/13 09:33:15;;;;;;;15.07;10.93;;;10.60;99.90;;;;;;5007015;28;20034;-42
2021/12/13 09:35:54;;;;;;;13.90;10.63;;;10.50;99.90;;;;;;5033438;28;20408;-44
2021/12/13 09:39:06;;;;;;;13.70;10.73;;;10.60;99.90;;;;;;5007219;28;20030;-43
2021/12/13 09:41:52;;;;;;;15.40;12.00;;;10.60;99.90;;;;;;4972688;28;20045;-43
2021/12/13 09:44:32;;;;;;;16.27;11.10;;;10.60;99.90;;;;;;5045889;28;20040;-42
2021/12/13 09:47:20;;;;;;;15.85;11.65;;;10.60;99.90;;;;;;5035737;28;20100;-42
2021/12/13 09:49:55;;;;;;;18.20;12.73;;;10.60;99.90;;;;;;5027956;28;20044;-43
2021/12/13 09:52:35;;;;;;;15.18;10.77;;;10.60;99.90;;;;;;5038055;28;20022;-43
2021/12/13 09:55:08;;;;;;;15.93;10.98;;;10.50;99.90;;;;;;5027573;28;20023;-43
2021/12/13 09:57:43;;;;;;;13.82;10.75;;;10.60;99.90;;;;;;5037537;28;20405;-43
2021/12/13 10:00:27;;;;;;;15.18;10.63;;;10.50;99.90;;;;;;5028221;28;20140;-43
2021/12/13 10:02:59;;;;;;;15.90;10.57;;;10.60;99.90;;;;;;5026898;28;20033;-44
2021/12/13 10:05:39;;;;;;;14.43;10.35;;;10.60;99.90;;;;;;5044808;28;20062;-44
2021/12/13 10:08:12;;;;;;;13.77;10.05;;;10.60;99.90;;;;;;5026372;28;20094;-44
2021/12/13 10:10:48;;;;;;;10.88;8.57;;;10.60;99.90;;;;;;5045429;28;20021;-43
2021/12/13 10:13:22;;;;;;;11.15;9.07;;;10.60;99.90;;;;;;5026935;28;20511;-45
2021/12/13 10:15:52;;;;;;;13.23;9.20;;;10.60;99.90;;;;;;5043533;28;20029;-43
2021/12/13 10:18:21;;;;;;;13.20;9.40;;;10.60;99.90;;;;;;5024697;28;20029;-43
2021/12/13 10:21:10;;;;;;;13.05;9.35;;;10.60;99.90;;;;;;5044971;28;20055;-43
2021/12/13 10:23:40;;;;;;;16.73;10.82;;;10.70;99.90;;;;;;5036044;28;20091;-43
2021/12/13 10:26:09;;;;;;;15.15;10.65;;;10.60;99.90;;;;;;5043977;28;20087;-43
2021/12/13 10:28:38;;;;;;;14.52;10.55;;;10.60;99.90;;;;;;5034512;28;20028;-43
2021/12/13 10:31:18;;;;;;;13.30;9.65;;;10.60;99.90;;;;;;5045177;28;20025;-43
2021/12/13 10:33:44;;;;;;;12.98;9.98;;;10.70;99.90;;;;;;5035462;28;20055;-43
2021/12/13 10:36:11;;;;;;;12.63;9.23;;;10.70;99.90;;;;;;5033832;28;20351;-44
2021/12/13 10:38:41;;;;;;;13.65;9.70;;;10.70;99.90;;;;;;5032728;28;20024;-42
2021/12/13 10:41:14;;;;;;;15.50;10.40;;;10.70;99.90;;;;;;5031108;28;20021;-43
2021/12/13 10:43:48;;;;;;;14.98;9.85;;;10.70;99.90;;;;;;5034018;28;20079;-44
2021/12/13 10:46:21;;;;;;;12.45;9.25;;;10.70;99.90;;;;;;5045287;28;20108;-44
2021/12/13 10:48:55;;;;;;;11.77;9.00;;;10.80;99.90;;;;;;5033013;28;20021;-42
2021/12/13 10:51:29;;;;;;;10.25;8.20;;;10.80;99.90;;;;;;5047712;28;20029;-43
2021/12/13 10:53:57;;;;;;;11.25;8.32;;;10.80;99.90;;;;;;5038640;28;20017;-43
2021/12/13 10:56:31;;;;;;;11.70;8.85;;;10.80;99.90;;;;;;5050006;28;20050;-43
2021/12/13 10:59:03;;;;;;;11.00;8.48;;;10.90;99.90;;;;;;5037423;28;20115;-43
2021/12/13 11:01:36;;;;;;;10.85;8.68;;;10.80;99.90;;;;;;5050038;28;20042;-43
2021/12/13 11:04:07;;;;;;;10.48;8.75;;;10.90;99.90;;;;;;5036824;28;20042;-42
2021/12/13 11:06:35;;;;;;;11.35;9.48;;;10.90;99.90;;;;;;5050124;28;20029;-44
2021/12/13 11:09:04;;;;;;;11.82;9.50;;;10.90;99.90;;;;;;5037031;28;20033;-43
2021/12/13 11:11:34;;;;;;;12.15;9.25;;;10.90;99.90;;;;;;5049175;28;20035;-43
2021/12/13 11:14:05;;;;;;;13.77;8.93;;;10.80;99.90;;;;;;5038276;28;20033;-43
2021/12/13 11:16:38;;;;;;;11.10;8.73;;;10.80;99.90;;;;;;5049029;28;20057;-44
2021/12/13 11:19:06;;;;;;;11.70;8.57;;;10.80;99.90;;;;;;5037094;28;20393;-44
2021/12/13 11:21:35;;;;;;;9.00;7.10;;;10.90;99.90;;;;;;5029607;28;20031;-44
2021/12/13 11:24:01;;;;;;;11.60;8.85;;;10.90;99.90;;;;;;5033788;28;20058;-43
2021/12/13 11:26:31;;;;;;;14.65;10.48;;;10.90;99.90;;;;;;5044618;28;20384;-43
2021/12/13 11:28:59;;;;;;;12.50;9.90;;;10.90;99.90;;;;;;5041555;28;20056;-43
2021/12/13 11:31:47;;;;;;;11.07;8.90;;;10.90;99.90;;;;;;5044141;28;20480;-43
2021/12/13 11:34:37;;;;;;;11.75;8.30;;;10.90;99.90;;;;;;5041910;28;20021;-42
2021/12/13 11:37:11;;;;;;;11.30;8.77;;;10.90;99.90;;;;;;5031877;28;20029;-42
2021/12/13 11:39:49;;;;;;;8.77;7.50;;;10.90;99.90;;;;;;5033569;28;20521;-43
2021/12/13 11:42:42;;;;;;;8.20;7.03;;;11.00;99.90;;;;;;5033434;28;20025;-43
2021/12/13 11:45:26;;;;;;;;;;;11.00;99.90;;;;;;5042041;28;20116;-43
2021/12/13 11:48:23;;;;;;;10.82;8.68;;;11.00;99.90;;;;;;5008397;28;19924;-43
2021/12/13 11:51:26;;;;;;;10.95;8.70;;;11.00;99.90;;;;;;5035496;28;20072;-43
2021/12/13 11:54:12;;;;;;;10.68;8.05;;;10.90;99.90;;;;;;5044505;28;20018;-43
2021/12/13 11:56:59;;;;;;;8.63;7.38;;;10.90;99.90;;;;;;5038809;28;20029;-44
2021/12/13 11:59:54;;;;;;;10.93;7.63;;;10.90;99.90;;;;;;5046466;28;20094;-44
2021/12/13 12:02:58;;;;;;;8.00;6.50;;;10.90;99.90;;;;;;5042550;28;20037;-42
2021/12/13 12:06:20;;;;;;;9.70;8.23;;;10.90;99.90;;;;;;5039539;28;20071;-43
2021/12/13 12:09:11;;;;;;;12.02;9.40;;;10.90;99.90;;;;;;5027015;28;20554;-43
2021/12/13 12:11:58;;;;;;;10.93;7.78;;;10.90;99.90;;;;;;5037752;28;20028;-43
2021/12/13 12:14:28;;;;;;;9.32;7.68;;;10.90;99.90;;;;;;5046618;28;20051;-43
2021/12/13 12:16:56;;;;;;;8.93;7.13;;;11.00;99.90;;;;;;5037180;28;20017;-42
2021/12/13 12:19:29;;;;;;;8.70;7.40;;;11.00;99.90;;;;;;5047567;28;20048;-44
2021/12/13 12:22:02;;;;;;;8.65;7.18;;;11.10;99.90;;;;;;5035630;28;20376;-44
2021/12/13 12:24:33;;;;;;;8.35;6.90;;;11.10;99.90;;;;;;5047958;28;20033;-43
2021/12/13 12:27:02;;;;;;;9.02;7.32;;;11.10;99.90;;;;;;5040800;28;20021;-42
2021/12/13 12:29:32;;;;;;;7.72;6.85;;;11.20;99.90;;;;;;5027681;28;20025;-43
2021/12/13 12:32:27;;;;;;;7.63;6.30;;;11.20;99.90;;;;;;5032786;28;20036;-43
2021/12/13 12:35:19;;;;;;;8.73;6.55;;;11.20;99.90;;;;;;5047077;28;20098;-43
2021/12/13 12:38:17;;;;;;;8.00;6.65;;;11.20;99.90;;;;;;5029697;28;20505;-42
2021/12/13 12:41:36;;;;;;;7.57;5.93;;;11.20;99.90;;;;;;5029234;28;20017;-42
2021/12/13 12:44:02;;;;;;;11.13;5.93;;;11.20;99.90;;;;;;5029403;28;20455;-42
2021/12/13 12:46:30;;;;;;;5.88;5.05;;;11.20;99.90;;;;;;5034443;28;20021;-44
2021/12/13 12:48:58;;;;;;;7.45;5.88;;;11.20;99.90;;;;;;5033663;28;20033;-44
2021/12/13 12:51:26;;;;;;;8.25;6.20;;;11.20;99.90;;;;;;5031731;28;20086;-43
2021/12/13 12:53:58;;;;;;;7.40;5.97;;;11.20;99.90;;;;;;5035438;28;20116;-43
2021/12/13 12:56:33;;;;;;;7.88;6.35;;;11.20;99.90;;;;;;5030583;28;20104;-42
2021/12/13 12:59:22;;;;;;;7.28;5.93;;;11.20;99.90;;;;;;5035518;28;20448;-43
2021/12/13 13:01:57;;;;;;;6.85;6.15;;;11.20;99.90;;;;;;5032455;28;20096;-43
2021/12/13 13:04:26;;;;;;;7.18;6.15;;;11.20;99.90;;;;;;5033757;28;20041;-43
2021/12/13 13:07:11;;;;;;;7.30;5.93;;;11.20;99.90;;;;;;5030827;28;20028;-42
2021/12/13 13:10:19;;;;;;;7.82;5.85;;;11.20;99.90;;;;;;5027127;28;20159;-42
2021/12/13 13:12:45;;;;;;;7.30;5.63;;;11.20;99.90;;;;;;5037404;28;20027;-43
2021/12/13 13:15:16;;;;;;;9.75;6.43;;;11.20;99.90;;;;;;5030204;28;20029;-44
2021/12/13 13:17:50;;;;;;;6.15;5.32;;;11.10;99.90;;;;;;5034376;28;20028;-43
2021/12/13 13:20:25;;;;;;;5.60;5.00;;;11.10;99.90;;;;;;5030665;28;20061;-44